sensor_id;sensor_type;location;lat;lon;timestamp;noise_LAeq;noise_LA_min;noise_LA_max;noise_LA01;noise_LA95
60116;Laerm;62818;49.394;8.686;2023-04-25T00:00:07;84.84;45.39;107.23;;
60116;Laerm;62818;49.394;8.686;2023-04-25T00:01:07;82.66;45.04;107.72;;
60116;Laerm;62818;49.394;8.686;2023-04-25T00:02:09;83.84;45.01;107.10;;
60116;Laerm;62818;49.394;8.686;2023-04-25T00:03:09;85.16;44.69;107.83;;
60116;Laerm;62818;49.394;8.686;2023-04-25T00:04:10;86.26;45.04;107.37;;
60116;Laerm;62818;49.394;8.686;2023-04-25T00:05:12;46.82;44.76;61.29;;
60116;Laerm;62818;49.394;8.686;2023-04-25T00:06:12;84.81;44.69;107.09;;
60116;Laerm;62818;49.394;8.686;2023-04-25T00:07:13;84.79;44.73;107.07;;
60116;Laerm;62818;49.394;8.686;2023-04-25T00:08:13;85.80;44.73;107.58;;
60116;Laerm;62818;49.394;8.686;2023-04-25T00:09:14;86.11;44.39;106.55;;
60116;Laerm;62818;49.394;8.686;2023-04-25T00:10:15;86.02;44.35;107.46;;
60116;Laerm;62818;49.394;8.686;2023-04-25T00:11:16;84.97;44.62;107.95;;
60116;Laerm;62818;49.394;8.686;2023-04-25T00:12:16;84.88;44.39;107.14;;
60116;Laerm;62818;49.394;8.686;2023-04-25T00:13:17;85.95;44.27;108.05;;
60116;Laerm;62818;49.394;8.686;2023-04-25T00:14:17;86.33;44.54;107.87;;
60116;Laerm;62818;49.394;8.686;2023-04-25T00:15:18;85.99;44.94;107.19;;
60116;Laerm;62818;49.394;8.686;2023-04-25T00:16:18;84.68;44.54;107.73;;
60116;Laerm;62818;49.394;8.686;2023-04-25T00:17:19;84.79;44.62;107.01;;
60116;Laerm;62818;49.394;8.686;2023-04-25T00:18:20;85.98;45.04;107.44;;
60116;Laerm;62818;49.394;8.686;2023-04-25T00:19:20;84.73;45.51;107.37;;
60116;Laerm;62818;49.394;8.686;2023-04-25T00:20:21;84.67;45.20;107.74;;
60116;Laerm;62818;49.394;8.686;2023-04-25T00:21:24;84.83;46.02;107.31;;
60116;Laerm;62818;49.394;8.686;2023-04-25T00:22:25;84.88;46.55;107.86;;
60116;Laerm;62818;49.394;8.686;2023-04-25T00:23:26;86.20;45.94;107.97;;
60116;Laerm;62818;49.394;8.686;2023-04-25T00:24:26;86.06;45.86;107.24;;
60116;Laerm;62818;49.394;8.686;2023-04-25T00:25:27;84.76;45.72;107.21;;
60116;Laerm;62818;49.394;8.686;2023-04-25T00:26:27;84.80;45.33;107.60;;
60116;Laerm;62818;49.394;8.686;2023-04-25T00:27:28;86.29;45.11;107.70;;
60116;Laerm;62818;49.394;8.686;2023-04-25T00:28:28;84.91;44.73;107.73;;
60116;Laerm;62818;49.394;8.686;2023-04-25T00:29:29;82.47;45.14;107.35;;
60116;Laerm;62818;49.394;8.686;2023-04-25T00:30:29;84.81;44.65;107.79;;
60116;Laerm;62818;49.394;8.686;2023-04-25T00:31:30;86.00;44.43;107.73;;
60116;Laerm;62818;49.394;8.686;2023-04-25T00:32:30;84.91;44.43;107.43;;
60116;Laerm;62818;49.394;8.686;2023-04-25T00:33:31;86.07;44.62;108.01;;
60116;Laerm;62818;49.394;8.686;2023-04-25T00:34:31;82.58;44.58;107.30;;
60116;Laerm;62818;49.394;8.686;2023-04-25T00:35:32;84.61;44.65;107.54;;
60116;Laerm;62818;49.394;8.686;2023-04-25T00:36:33;86.43;44.65;106.98;;
60116;Laerm;62818;49.394;8.686;2023-04-25T00:37:34;86.03;44.62;107.48;;
60116;Laerm;62818;49.394;8.686;2023-04-25T00:38:35;84.70;44.87;107.75;;
60116;Laerm;62818;49.394;8.686;2023-04-25T00:39:36;86.27;44.51;107.73;;
60116;Laerm;62818;49.394;8.686;2023-04-25T00:40:36;82.57;44.51;107.55;;
60116;Laerm;62818;49.394;8.686;2023-04-25T00:41:37;84.66;44.62;107.43;;
60116;Laerm;62818;49.394;8.686;2023-04-25T00:42:37;82.81;44.62;106.12;;
60116;Laerm;62818;49.394;8.686;2023-04-25T00:43:40;86.29;44.80;107.73;;
60116;Laerm;62818;49.394;8.686;2023-04-25T00:44:42;82.69;44.83;107.08;;
60116;Laerm;62818;49.394;8.686;2023-04-25T00:45:43;82.65;44.83;107.44;;
60116;Laerm;62818;49.394;8.686;2023-04-25T00:46:50;82.47;44.94;106.97;;
60116;Laerm;62818;49.394;8.686;2023-04-25T00:47:50;85.09;44.76;107.53;;
60116;Laerm;62818;49.394;8.686;2023-04-25T00:48:51;86.04;44.80;107.22;;
60116;Laerm;62818;49.394;8.686;2023-04-25T00:49:51;84.79;44.65;106.66;;
60116;Laerm;62818;49.394;8.686;2023-04-25T00:50:55;57.55;44.43;82.88;;
60116;Laerm;62818;49.394;8.686;2023-04-25T00:51:57;84.66;44.43;107.03;;
60116;Laerm;62818;49.394;8.686;2023-04-25T00:52:57;84.85;44.69;107.44;;
60116;Laerm;62818;49.394;8.686;2023-04-25T00:53:58;84.81;44.76;107.88;;
60116;Laerm;62818;49.394;8.686;2023-04-25T00:55:00;82.37;44.69;107.58;;
60116;Laerm;62818;49.394;8.686;2023-04-25T00:56:01;86.23;44.58;107.44;;
60116;Laerm;62818;49.394;8.686;2023-04-25T00:57:02;85.92;44.27;107.23;;
60116;Laerm;62818;49.394;8.686;2023-04-25T00:58:03;82.78;44.31;107.62;;
60116;Laerm;62818;49.394;8.686;2023-04-25T00:59:03;86.20;44.43;107.91;;
60116;Laerm;62818;49.394;8.686;2023-04-25T01:00:06;84.70;44.43;107.32;;
60116;Laerm;62818;49.394;8.686;2023-04-25T01:01:08;84.98;44.62;107.31;;
60116;Laerm;62818;49.394;8.686;2023-04-25T01:02:09;85.01;44.65;107.43;;
60116;Laerm;62818;49.394;8.686;2023-04-25T01:03:10;85.80;44.23;108.05;;
60116;Laerm;62818;49.394;8.686;2023-04-25T01:04:10;85.34;45.20;107.82;;
60116;Laerm;62818;49.394;8.686;2023-04-25T01:05:11;86.29;44.47;108.10;;
60116;Laerm;62818;49.394;8.686;2023-04-25T01:06:12;84.76;44.27;106.88;;
60116;Laerm;62818;49.394;8.686;2023-04-25T01:07:13;86.29;44.27;107.76;;
60116;Laerm;62818;49.394;8.686;2023-04-25T01:08:14;86.21;44.07;107.75;;
60116;Laerm;62818;49.394;8.686;2023-04-25T01:09:15;85.04;44.27;107.60;;
60116;Laerm;62818;49.394;8.686;2023-04-25T01:10:16;82.71;44.19;107.88;;
60116;Laerm;62818;49.394;8.686;2023-04-25T01:11:17;87.24;45.51;107.83;;
60116;Laerm;62818;49.394;8.686;2023-04-25T01:12:18;84.98;44.95;107.75;;
60116;Laerm;62818;49.394;8.686;2023-04-25T01:13:18;84.72;44.80;107.71;;
60116;Laerm;62818;49.394;8.686;2023-04-25T01:14:20;84.85;45.73;107.79;;
60116;Laerm;62818;49.394;8.686;2023-04-25T01:15:20;86.36;44.27;107.61;;
60116;Laerm;62818;49.394;8.686;2023-04-25T01:16:22;82.81;44.62;107.42;;
60116;Laerm;62818;49.394;8.686;2023-04-25T01:17:24;84.97;44.39;107.82;;
60116;Laerm;62818;49.394;8.686;2023-04-25T01:18:24;84.99;44.54;107.80;;
60116;Laerm;62818;49.394;8.686;2023-04-25T01:19:25;86.34;45.57;107.78;;
60116;Laerm;62818;49.394;8.686;2023-04-25T01:20:26;85.13;44.80;108.06;;
60116;Laerm;62818;49.394;8.686;2023-04-25T01:21:28;85.09;44.80;107.94;;
60116;Laerm;62818;49.394;8.686;2023-04-25T01:22:31;85.07;44.83;108.11;;
60116;Laerm;62818;49.394;8.686;2023-04-25T01:23:32;86.05;44.73;108.10;;
60116;Laerm;62818;49.394;8.686;2023-04-25T01:24:33;85.16;44.80;108.25;;
60116;Laerm;62818;49.394;8.686;2023-04-25T01:25:34;85.33;47.42;108.35;;
60116;Laerm;62818;49.394;8.686;2023-04-25T01:26:36;86.50;45.11;108.21;;
60116;Laerm;62818;49.394;8.686;2023-04-25T01:27:37;83.09;44.97;107.45;;
60116;Laerm;62818;49.394;8.686;2023-04-25T01:28:39;85.07;44.80;108.29;;
60116;Laerm;62818;49.394;8.686;2023-04-25T01:29:41;84.76;44.62;107.90;;
60116;Laerm;62818;49.394;8.686;2023-04-25T01:30:42;85.33;45.17;108.11;;
60116;Laerm;62818;49.394;8.686;2023-04-25T01:31:44;86.57;44.58;108.23;;
60116;Laerm;62818;49.394;8.686;2023-04-25T01:32:45;47.03;44.90;56.82;;
60116;Laerm;62818;49.394;8.686;2023-04-25T01:33:47;86.43;44.90;107.76;;
60116;Laerm;62818;49.394;8.686;2023-04-25T01:34:47;85.21;44.54;107.83;;
60116;Laerm;62818;49.394;8.686;2023-04-25T01:35:48;86.54;44.69;107.92;;
60116;Laerm;62818;49.394;8.686;2023-04-25T01:36:50;86.55;44.80;108.00;;
60116;Laerm;62818;49.394;8.686;2023-04-25T01:37:51;86.36;44.73;108.10;;
60116;Laerm;62818;49.394;8.686;2023-04-25T01:38:52;86.50;45.11;108.11;;
60116;Laerm;62818;49.394;8.686;2023-04-25T01:39:53;85.00;44.94;107.85;;
60116;Laerm;62818;49.394;8.686;2023-04-25T01:40:55;85.06;45.89;107.94;;
60116;Laerm;62818;49.394;8.686;2023-04-25T01:41:56;85.42;44.83;107.62;;
60116;Laerm;62818;49.394;8.686;2023-04-25T01:42:57;85.16;44.83;107.39;;
60116;Laerm;62818;49.394;8.686;2023-04-25T01:43:57;86.44;44.54;107.60;;
60116;Laerm;62818;49.394;8.686;2023-04-25T01:44:58;86.48;44.76;107.15;;
60116;Laerm;62818;49.394;8.686;2023-04-25T01:45:59;86.16;45.99;108.03;;
60116;Laerm;62818;49.394;8.686;2023-04-25T01:47:00;85.06;44.97;107.80;;
60116;Laerm;62818;49.394;8.686;2023-04-25T01:48:01;85.13;44.51;107.95;;
60116;Laerm;62818;49.394;8.686;2023-04-25T01:49:02;85.20;44.43;107.56;;
60116;Laerm;62818;49.394;8.686;2023-04-25T01:50:05;86.17;48.09;107.31;;
60116;Laerm;62818;49.394;8.686;2023-04-25T01:51:05;83.04;45.75;107.33;;
60116;Laerm;62818;49.394;8.686;2023-04-25T01:52:06;85.12;44.58;107.51;;
60116;Laerm;62818;49.394;8.686;2023-04-25T01:53:09;87.23;44.58;107.78;;
60116;Laerm;62818;49.394;8.686;2023-04-25T01:54:12;82.85;44.54;107.78;;
60116;Laerm;62818;49.394;8.686;2023-04-25T01:55:13;85.12;44.51;106.82;;
60116;Laerm;62818;49.394;8.686;2023-04-25T01:56:14;85.08;44.27;107.91;;
60116;Laerm;62818;49.394;8.686;2023-04-25T01:57:15;83.30;44.97;107.13;;
60116;Laerm;62818;49.394;8.686;2023-04-25T01:58:15;83.08;44.47;106.88;;
60116;Laerm;62818;49.394;8.686;2023-04-25T01:59:16;85.20;44.19;107.65;;
60116;Laerm;62818;49.394;8.686;2023-04-25T02:00:16;83.21;44.87;107.82;;
60116;Laerm;62818;49.394;8.686;2023-04-25T02:01:17;85.30;44.90;107.07;;
60116;Laerm;62818;49.394;8.686;2023-04-25T02:02:17;83.25;45.04;107.13;;
60116;Laerm;62818;49.394;8.686;2023-04-25T02:03:18;83.10;45.14;107.30;;
60116;Laerm;62818;49.394;8.686;2023-04-25T02:04:18;85.20;45.60;108.31;;
60116;Laerm;62818;49.394;8.686;2023-04-25T02:05:19;85.23;45.39;107.80;;
60116;Laerm;62818;49.394;8.686;2023-04-25T02:06:21;85.03;46.20;107.67;;
60116;Laerm;62818;49.394;8.686;2023-04-25T02:07:21;83.25;45.66;107.52;;
60116;Laerm;62818;49.394;8.686;2023-04-25T02:08:22;83.63;46.71;107.61;;
60116;Laerm;62818;49.394;8.686;2023-04-25T02:09:23;85.20;47.30;107.65;;
60116;Laerm;62818;49.394;8.686;2023-04-25T02:10:23;85.14;47.88;107.86;;
60116;Laerm;62818;49.394;8.686;2023-04-25T02:11:24;83.00;48.00;107.77;;
60116;Laerm;62818;49.394;8.686;2023-04-25T02:12:25;85.15;46.95;107.83;;
60116;Laerm;62818;49.394;8.686;2023-04-25T02:13:26;83.32;46.18;106.87;;
60116;Laerm;62818;49.394;8.686;2023-04-25T02:14:27;85.32;45.91;107.76;;
60116;Laerm;62818;49.394;8.686;2023-04-25T02:15:28;83.08;46.18;107.69;;
60116;Laerm;62818;49.394;8.686;2023-04-25T02:16:29;86.35;45.99;107.75;;
60116;Laerm;62818;49.394;8.686;2023-04-25T02:17:30;85.15;47.46;107.16;;
60116;Laerm;62818;49.394;8.686;2023-04-25T02:18:32;83.19;46.78;107.61;;
60116;Laerm;62818;49.394;8.686;2023-04-25T02:19:33;83.20;45.63;107.88;;
60116;Laerm;62818;49.394;8.686;2023-04-25T02:20:34;85.36;45.66;107.28;;
60116;Laerm;62818;49.394;8.686;2023-04-25T02:21:34;83.38;45.33;107.53;;
60116;Laerm;62818;49.394;8.686;2023-04-25T02:22:36;85.29;46.97;107.21;;
60116;Laerm;62818;49.394;8.686;2023-04-25T02:23:37;83.19;45.89;107.12;;
60116;Laerm;62818;49.394;8.686;2023-04-25T02:24:38;83.34;46.10;107.63;;
60116;Laerm;62818;49.394;8.686;2023-04-25T02:25:39;83.08;47.06;107.97;;
60116;Laerm;62818;49.394;8.686;2023-04-25T02:26:39;83.14;47.36;106.98;;
60116;Laerm;62818;49.394;8.686;2023-04-25T02:27:40;85.13;47.22;107.61;;
60116;Laerm;62818;49.394;8.686;2023-04-25T02:28:40;83.23;46.71;107.80;;
60116;Laerm;62818;49.394;8.686;2023-04-25T02:29:41;86.62;46.25;108.00;;
60116;Laerm;62818;49.394;8.686;2023-04-25T02:30:41;85.47;47.24;107.93;;
60116;Laerm;62818;49.394;8.686;2023-04-25T02:31:42;83.20;46.73;107.26;;
60116;Laerm;62818;49.394;8.686;2023-04-25T02:32:43;84.88;46.84;108.25;;
60116;Laerm;62818;49.394;8.686;2023-04-25T02:33:44;83.00;47.61;106.57;;
60116;Laerm;62818;49.394;8.686;2023-04-25T02:34:44;85.37;47.84;107.39;;
60116;Laerm;62818;49.394;8.686;2023-04-25T02:35:45;86.68;50.93;107.56;;
60116;Laerm;62818;49.394;8.686;2023-04-25T02:36:45;82.28;49.03;106.76;;
60116;Laerm;62818;49.394;8.686;2023-04-25T02:37:46;85.28;48.13;107.42;;
60116;Laerm;62818;49.394;8.686;2023-04-25T02:38:46;78.50;49.00;89.27;;
60116;Laerm;62818;49.394;8.686;2023-04-25T02:39:47;85.46;48.55;107.16;;
60116;Laerm;62818;49.394;8.686;2023-04-25T02:40:47;85.15;49.07;107.79;;
60116;Laerm;62818;49.394;8.686;2023-04-25T02:41:48;83.47;48.83;107.55;;
60116;Laerm;62818;49.394;8.686;2023-04-25T02:42:48;85.22;49.29;107.57;;
60116;Laerm;62818;49.394;8.686;2023-04-25T02:43:49;83.41;48.55;107.70;;
60116;Laerm;62818;49.394;8.686;2023-04-25T02:44:49;83.46;48.00;108.23;;
60116;Laerm;62818;49.394;8.686;2023-04-25T02:45:49;86.03;48.36;108.09;;
60116;Laerm;62818;49.394;8.686;2023-04-25T02:46:50;83.06;48.58;107.53;;
60116;Laerm;62818;49.394;8.686;2023-04-25T02:47:51;86.58;48.63;107.87;;
60116;Laerm;62818;49.394;8.686;2023-04-25T02:48:51;85.72;48.90;107.65;;
60116;Laerm;62818;49.394;8.686;2023-04-25T02:49:52;83.15;49.07;107.69;;
60116;Laerm;62818;49.394;8.686;2023-04-25T02:50:52;83.43;50.05;107.26;;
60116;Laerm;62818;49.394;8.686;2023-04-25T02:51:52;83.56;50.21;107.96;;
60116;Laerm;62818;49.394;8.686;2023-04-25T02:52:53;85.09;50.79;107.75;;
60116;Laerm;62818;49.394;8.686;2023-04-25T02:53:53;83.17;50.80;108.10;;
60116;Laerm;62818;49.394;8.686;2023-04-25T02:54:54;86.55;50.49;108.22;;
60116;Laerm;62818;49.394;8.686;2023-04-25T02:55:54;85.86;49.90;107.91;;
60116;Laerm;62818;49.394;8.686;2023-04-25T02:56:58;78.80;49.44;87.63;;
60116;Laerm;62818;49.394;8.686;2023-04-25T02:57:58;86.67;48.99;107.97;;
60116;Laerm;62818;49.394;8.686;2023-04-25T02:58:59;85.70;47.57;108.13;;
60116;Laerm;62818;49.394;8.686;2023-04-25T02:59:59;84.60;47.74;107.10;;
60116;Laerm;62818;49.394;8.686;2023-04-25T03:01:00;85.72;47.38;107.71;;
60116;Laerm;62818;49.394;8.686;2023-04-25T03:02:01;83.31;47.08;107.99;;
60116;Laerm;62818;49.394;8.686;2023-04-25T03:03:02;86.65;46.91;108.00;;
60116;Laerm;62818;49.394;8.686;2023-04-25T03:04:02;86.71;46.50;107.78;;
60116;Laerm;62818;49.394;8.686;2023-04-25T03:05:03;85.41;46.28;108.43;;
60116;Laerm;62818;49.394;8.686;2023-04-25T03:06:03;85.34;46.15;107.80;;
60116;Laerm;62818;49.394;8.686;2023-04-25T03:07:05;85.44;46.28;107.95;;
60116;Laerm;62818;49.394;8.686;2023-04-25T03:08:06;83.45;46.20;107.17;;
60116;Laerm;62818;49.394;8.686;2023-04-25T03:09:06;86.67;46.64;107.89;;
60116;Laerm;62818;49.394;8.686;2023-04-25T03:10:07;83.93;46.55;107.89;;
60116;Laerm;62818;49.394;8.686;2023-04-25T03:11:08;87.03;46.05;108.59;;
60116;Laerm;62818;49.394;8.686;2023-04-25T03:12:08;85.60;46.82;107.61;;
60116;Laerm;62818;49.394;8.686;2023-04-25T03:13:09;85.60;46.35;108.30;;
60116;Laerm;62818;49.394;8.686;2023-04-25T03:14:09;86.43;46.35;107.54;;
60116;Laerm;62818;49.394;8.686;2023-04-25T03:15:10;86.69;46.28;107.87;;
60116;Laerm;62818;49.394;8.686;2023-04-25T03:16:10;85.35;47.32;108.18;;
60116;Laerm;62818;49.394;8.686;2023-04-25T03:17:11;85.26;45.69;108.15;;
60116;Laerm;62818;49.394;8.686;2023-04-25T03:18:12;85.57;46.33;106.93;;
60116;Laerm;62818;49.394;8.686;2023-04-25T03:19:12;85.49;46.59;108.14;;
60116;Laerm;62818;49.394;8.686;2023-04-25T03:20:12;86.97;46.13;107.73;;
60116;Laerm;62818;49.394;8.686;2023-04-25T03:21:13;86.81;45.48;107.97;;
60116;Laerm;62818;49.394;8.686;2023-04-25T03:22:13;85.35;46.55;108.35;;
60116;Laerm;62818;49.394;8.686;2023-04-25T03:23:14;86.48;46.38;108.22;;
60116;Laerm;62818;49.394;8.686;2023-04-25T03:24:14;86.88;46.87;108.06;;
60116;Laerm;62818;49.394;8.686;2023-04-25T03:25:15;85.27;46.93;107.16;;
60116;Laerm;62818;49.394;8.686;2023-04-25T03:26:16;85.59;46.91;107.97;;
60116;Laerm;62818;49.394;8.686;2023-04-25T03:27:17;85.58;47.91;108.29;;
60116;Laerm;62818;49.394;8.686;2023-04-25T03:28:17;85.56;46.48;107.94;;
60116;Laerm;62818;49.394;8.686;2023-04-25T03:29:18;83.47;46.45;107.48;;
60116;Laerm;62818;49.394;8.686;2023-04-25T03:30:18;85.45;45.36;107.74;;
60116;Laerm;62818;49.394;8.686;2023-04-25T03:31:19;85.21;46.18;107.18;;
60116;Laerm;62818;49.394;8.686;2023-04-25T03:32:20;86.75;45.66;108.35;;
60116;Laerm;62818;49.394;8.686;2023-04-25T03:33:20;85.68;49.19;108.32;;
60116;Laerm;62818;49.394;8.686;2023-04-25T03:34:21;86.02;46.57;107.96;;
60116;Laerm;62818;49.394;8.686;2023-04-25T03:35:21;85.51;45.89;108.22;;
60116;Laerm;62818;49.394;8.686;2023-04-25T03:36:23;85.57;46.69;108.37;;
60116;Laerm;62818;49.394;8.686;2023-04-25T03:37:24;85.16;46.48;107.87;;
60116;Laerm;62818;49.394;8.686;2023-04-25T03:38:24;87.24;47.67;107.73;;
60116;Laerm;62818;49.394;8.686;2023-04-25T03:39:25;85.27;47.83;107.70;;
60116;Laerm;62818;49.394;8.686;2023-04-25T03:40:26;83.50;46.02;107.27;;
60116;Laerm;62818;49.394;8.686;2023-04-25T03:41:26;83.78;46.89;107.95;;
60116;Laerm;62818;49.394;8.686;2023-04-25T03:42:28;82.04;46.84;107.19;;
60116;Laerm;62818;49.394;8.686;2023-04-25T03:43:28;83.98;46.48;107.57;;
60116;Laerm;62818;49.394;8.686;2023-04-25T03:44:28;85.56;46.48;107.72;;
60116;Laerm;62818;49.394;8.686;2023-04-25T03:45:29;85.58;47.70;107.33;;
60116;Laerm;62818;49.394;8.686;2023-04-25T03:46:29;86.85;47.59;108.42;;
60116;Laerm;62818;49.394;8.686;2023-04-25T03:47:30;85.37;47.81;107.51;;
60116;Laerm;62818;49.394;8.686;2023-04-25T03:48:30;83.46;48.05;107.40;;
60116;Laerm;62818;49.394;8.686;2023-04-25T03:49:32;85.51;48.52;107.90;;
60116;Laerm;62818;49.394;8.686;2023-04-25T03:50:32;85.35;49.93;107.59;;
60116;Laerm;62818;49.394;8.686;2023-04-25T03:51:33;85.32;47.10;107.61;;
60116;Laerm;62818;49.394;8.686;2023-04-25T03:52:33;85.43;47.43;108.35;;
60116;Laerm;62818;49.394;8.686;2023-04-25T03:53:34;86.84;47.50;108.27;;
60116;Laerm;62818;49.394;8.686;2023-04-25T03:54:34;85.49;49.21;108.47;;
60116;Laerm;62818;49.394;8.686;2023-04-25T03:55:35;85.44;46.89;107.50;;
60116;Laerm;62818;49.394;8.686;2023-04-25T03:56:35;85.61;47.26;107.31;;
60116;Laerm;62818;49.394;8.686;2023-04-25T03:57:36;85.38;47.36;108.30;;
60116;Laerm;62818;49.394;8.686;2023-04-25T03:58:36;86.66;47.02;108.33;;
60116;Laerm;62818;49.394;8.686;2023-04-25T03:59:37;85.57;46.62;108.14;;
60116;Laerm;62818;49.394;8.686;2023-04-25T04:00:37;85.71;47.10;108.06;;
60116;Laerm;62818;49.394;8.686;2023-04-25T04:01:38;83.90;46.76;107.83;;
60116;Laerm;62818;49.394;8.686;2023-04-25T04:02:38;85.57;46.78;107.93;;
60116;Laerm;62818;49.394;8.686;2023-04-25T04:03:39;85.41;47.42;108.25;;
60116;Laerm;62818;49.394;8.686;2023-04-25T04:04:39;83.29;46.80;107.90;;
60116;Laerm;62818;49.394;8.686;2023-04-25T04:05:40;85.83;47.59;108.51;;
60116;Laerm;62818;49.394;8.686;2023-04-25T04:06:40;85.61;47.06;107.68;;
60116;Laerm;62818;49.394;8.686;2023-04-25T04:07:42;85.43;46.23;108.16;;
60116;Laerm;62818;49.394;8.686;2023-04-25T04:08:43;85.71;46.30;108.21;;
60116;Laerm;62818;49.394;8.686;2023-04-25T04:09:43;85.60;46.43;108.04;;
60116;Laerm;62818;49.394;8.686;2023-04-25T04:10:44;83.26;46.84;107.10;;
60116;Laerm;62818;49.394;8.686;2023-04-25T04:11:44;87.02;46.89;108.18;;
60116;Laerm;62818;49.394;8.686;2023-04-25T04:12:45;86.90;48.46;108.43;;
60116;Laerm;62818;49.394;8.686;2023-04-25T04:13:45;85.62;47.22;108.24;;
60116;Laerm;62818;49.394;8.686;2023-04-25T04:14:46;86.77;47.44;107.77;;
60116;Laerm;62818;49.394;8.686;2023-04-25T04:15:46;87.03;46.95;108.11;;
60116;Laerm;62818;49.394;8.686;2023-04-25T04:16:47;85.67;49.83;108.05;;
60116;Laerm;62818;49.394;8.686;2023-04-25T04:17:48;78.69;47.09;88.22;;
60116;Laerm;62818;49.394;8.686;2023-04-25T04:18:49;85.78;48.12;108.23;;
60116;Laerm;62818;49.394;8.686;2023-04-25T04:19:50;83.68;46.89;108.06;;
60116;Laerm;62818;49.394;8.686;2023-04-25T04:20:50;86.97;47.02;107.27;;
60116;Laerm;62818;49.394;8.686;2023-04-25T04:21:51;85.81;48.90;107.99;;
60116;Laerm;62818;49.394;8.686;2023-04-25T04:22:51;83.50;47.10;107.34;;
60116;Laerm;62818;49.394;8.686;2023-04-25T04:23:52;85.68;46.84;107.88;;
60116;Laerm;62818;49.394;8.686;2023-04-25T04:24:52;85.49;49.45;107.82;;
60116;Laerm;62818;49.394;8.686;2023-04-25T04:25:53;85.40;49.32;107.48;;
60116;Laerm;62818;49.394;8.686;2023-04-25T04:26:54;85.92;47.34;108.08;;
60116;Laerm;62818;49.394;8.686;2023-04-25T04:27:55;83.46;50.31;106.97;;
60116;Laerm;62818;49.394;8.686;2023-04-25T04:28:55;83.37;48.36;107.32;;
60116;Laerm;62818;49.394;8.686;2023-04-25T04:29:56;85.42;46.08;107.92;;
60116;Laerm;62818;49.394;8.686;2023-04-25T04:30:57;63.72;47.20;82.93;;
60116;Laerm;62818;49.394;8.686;2023-04-25T04:31:58;86.96;46.87;108.26;;
60116;Laerm;62818;49.394;8.686;2023-04-25T04:32:59;86.76;45.77;108.38;;
60116;Laerm;62818;49.394;8.686;2023-04-25T04:34:01;85.67;50.50;108.35;;
60116;Laerm;62818;49.394;8.686;2023-04-25T04:35:02;85.61;49.23;107.59;;
60116;Laerm;62818;49.394;8.686;2023-04-25T04:36:03;83.48;45.89;108.02;;
60116;Laerm;62818;49.394;8.686;2023-04-25T04:37:04;60.42;46.71;72.83;;
60116;Laerm;62818;49.394;8.686;2023-04-25T04:38:05;86.85;48.10;108.01;;
60116;Laerm;62818;49.394;8.686;2023-04-25T04:39:06;86.99;46.84;108.07;;
60116;Laerm;62818;49.394;8.686;2023-04-25T04:40:07;86.89;46.97;108.03;;
60116;Laerm;62818;49.394;8.686;2023-04-25T04:41:08;78.51;51.16;89.27;;
60116;Laerm;62818;49.394;8.686;2023-04-25T04:42:09;83.68;50.10;108.03;;
60116;Laerm;62818;49.394;8.686;2023-04-25T04:43:11;79.02;47.96;89.01;;
60116;Laerm;62818;49.394;8.686;2023-04-25T04:44:12;86.53;47.81;107.73;;
60116;Laerm;62818;49.394;8.686;2023-04-25T04:45:12;87.21;46.52;108.27;;
60116;Laerm;62818;49.394;8.686;2023-04-25T04:46:13;83.56;47.06;107.76;;
60116;Laerm;62818;49.394;8.686;2023-04-25T04:47:14;78.78;48.58;89.98;;
60116;Laerm;62818;49.394;8.686;2023-04-25T04:48:15;83.61;46.64;107.72;;
60116;Laerm;62818;49.394;8.686;2023-04-25T04:49:16;85.73;47.95;107.68;;
60116;Laerm;62818;49.394;8.686;2023-04-25T04:50:16;84.95;52.92;107.85;;
60116;Laerm;62818;49.394;8.686;2023-04-25T04:51:17;83.19;46.35;107.93;;
60116;Laerm;62818;49.394;8.686;2023-04-25T04:52:17;83.68;47.28;107.73;;
60116;Laerm;62818;49.394;8.686;2023-04-25T04:53:19;83.70;55.41;107.18;;
60116;Laerm;62818;49.394;8.686;2023-04-25T04:54:19;83.54;49.32;106.85;;
60116;Laerm;62818;49.394;8.686;2023-04-25T04:55:20;85.16;50.09;107.19;;
60116;Laerm;62818;49.394;8.686;2023-04-25T04:56:21;83.29;52.51;107.00;;
60116;Laerm;62818;49.394;8.686;2023-04-25T04:57:23;82.94;47.26;107.79;;
60116;Laerm;62818;49.394;8.686;2023-04-25T04:58:24;85.24;45.77;106.87;;
60116;Laerm;62818;49.394;8.686;2023-04-25T04:59:24;85.38;49.66;108.05;;
60116;Laerm;62818;49.394;8.686;2023-04-25T05:00:25;85.00;47.32;107.84;;
60116;Laerm;62818;49.394;8.686;2023-04-25T05:01:26;85.32;50.08;107.65;;
60116;Laerm;62818;49.394;8.686;2023-04-25T05:02:27;85.23;52.91;107.69;;
60116;Laerm;62818;49.394;8.686;2023-04-25T05:03:27;85.48;47.38;108.00;;
60116;Laerm;62818;49.394;8.686;2023-04-25T05:04:28;85.25;46.02;107.86;;
60116;Laerm;62818;49.394;8.686;2023-04-25T05:05:28;78.77;48.51;89.32;;
60116;Laerm;62818;49.394;8.686;2023-04-25T05:06:29;85.37;47.14;107.96;;
60116;Laerm;62818;49.394;8.686;2023-04-25T05:07:30;86.47;49.88;107.84;;
60116;Laerm;62818;49.394;8.686;2023-04-25T05:08:30;83.75;57.71;107.34;;
60116;Laerm;62818;49.394;8.686;2023-04-25T05:09:31;83.45;48.55;107.75;;
60116;Laerm;62818;49.394;8.686;2023-04-25T05:10:31;85.40;46.30;107.81;;
60116;Laerm;62818;49.394;8.686;2023-04-25T05:11:32;85.54;46.62;107.86;;
60116;Laerm;62818;49.394;8.686;2023-04-25T05:12:32;78.59;50.35;87.79;;
60116;Laerm;62818;49.394;8.686;2023-04-25T05:13:33;85.68;48.52;107.05;;
60116;Laerm;62818;49.394;8.686;2023-04-25T05:14:33;85.38;55.01;108.18;;
60116;Laerm;62818;49.394;8.686;2023-04-25T05:15:34;83.31;50.92;107.74;;
60116;Laerm;62818;49.394;8.686;2023-04-25T05:16:35;85.30;47.10;107.44;;
60116;Laerm;62818;49.394;8.686;2023-04-25T05:17:35;85.06;53.10;106.89;;
60116;Laerm;62818;49.394;8.686;2023-04-25T05:18:36;83.32;50.01;107.26;;
60116;Laerm;62818;49.394;8.686;2023-04-25T05:19:36;82.27;46.45;107.17;;
60116;Laerm;62818;49.394;8.686;2023-04-25T05:20:37;83.63;49.00;106.61;;
60116;Laerm;62818;49.394;8.686;2023-04-25T05:21:37;78.57;48.77;89.22;;
60116;Laerm;62818;49.394;8.686;2023-04-25T05:22:38;78.00;47.68;88.02;;
60116;Laerm;62818;49.394;8.686;2023-04-25T05:23:38;78.58;50.59;93.24;;
60116;Laerm;62818;49.394;8.686;2023-04-25T05:24:39;84.95;50.45;107.27;;
60116;Laerm;62818;49.394;8.686;2023-04-25T05:25:39;85.25;46.64;107.57;;
60116;Laerm;62818;49.394;8.686;2023-04-25T05:26:40;83.59;54.52;106.71;;
60116;Laerm;62818;49.394;8.686;2023-04-25T05:27:40;77.93;49.94;88.98;;
60116;Laerm;62818;49.394;8.686;2023-04-25T05:28:41;82.84;47.81;107.40;;
60116;Laerm;62818;49.394;8.686;2023-04-25T05:29:42;84.65;47.16;106.95;;
60116;Laerm;62818;49.394;8.686;2023-04-25T05:30:43;84.43;50.98;107.07;;
60116;Laerm;62818;49.394;8.686;2023-04-25T05:31:45;83.07;48.52;106.89;;
60116;Laerm;62818;49.394;8.686;2023-04-25T05:32:45;83.01;47.81;107.20;;
60116;Laerm;62818;49.394;8.686;2023-04-25T05:33:47;86.23;52.81;107.22;;
60116;Laerm;62818;49.394;8.686;2023-04-25T05:34:47;84.64;46.95;106.82;;
60116;Laerm;62818;49.394;8.686;2023-04-25T05:35:48;82.62;51.54;107.36;;